sensor_id;sensor_type;location;lat;lon;timestamp;P1;durP1;ratioP1;P2;durP2;ratioP2
1837;SDS011;918;50.796;6.772;2023-03-01T00:02:02;14.47;;;12.63;;
1837;SDS011;918;50.796;6.772;2023-03-01T00:04:27;12.87;;;11.57;;
1837;SDS011;918;50.796;6.772;2023-03-01T00:06:52;13.83;;;11.97;;
1837;SDS011;918;50.796;6.772;2023-03-01T00:09:18;16.90;;;12.87;;
1837;SDS011;918;50.796;6.772;2023-03-01T00:11:43;19.57;;;15.57;;
1837;SDS011;918;50.796;6.772;2023-03-01T00:14:09;24.67;;;18.97;;
1837;SDS011;918;50.796;6.772;2023-03-01T00:16:38;20.63;;;18.43;;
1837;SDS011;918;50.796;6.772;2023-03-01T00:19:05;17.57;;;15.03;;
1837;SDS011;918;50.796;6.772;2023-03-01T00:21:31;17.00;;;14.70;;
1837;SDS011;918;50.796;6.772;2023-03-01T00:23:57;17.47;;;14.47;;
1837;SDS011;918;50.796;6.772;2023-03-01T00:26:23;14.40;;;13.00;;
1837;SDS011;918;50.796;6.772;2023-03-01T00:28:49;14.60;;;13.30;;
1837;SDS011;918;50.796;6.772;2023-03-01T00:31:19;12.97;;;11.40;;
1837;SDS011;918;50.796;6.772;2023-03-01T00:33:46;13.07;;;11.83;;
1837;SDS011;918;50.796;6.772;2023-03-01T00:36:12;13.30;;;11.83;;
1837;SDS011;918;50.796;6.772;2023-03-01T00:38:39;11.83;;;10.60;;
1837;SDS011;918;50.796;6.772;2023-03-01T00:41:10;11.87;;;10.70;;
1837;SDS011;918;50.796;6.772;2023-03-01T00:43:38;11.60;;;10.50;;
1837;SDS011;918;50.796;6.772;2023-03-01T00:46:10;12.07;;;9.73;;
1837;SDS011;918;50.796;6.772;2023-03-01T00:48:37;10.87;;;9.77;;
1837;SDS011;918;50.796;6.772;2023-03-01T00:53:35;12.37;;;11.13;;
1837;SDS011;918;50.796;6.772;2023-03-01T00:56:01;12.33;;;10.97;;
1837;SDS011;918;50.796;6.772;2023-03-01T00:58:26;12.47;;;11.03;;
1837;SDS011;918;50.796;6.772;2023-03-01T01:00:52;11.50;;;10.30;;
1837;SDS011;918;50.796;6.772;2023-03-01T01:03:20;10.43;;;9.43;;
1837;SDS011;918;50.796;6.772;2023-03-01T01:05:45;11.23;;;10.03;;
1837;SDS011;918;50.796;6.772;2023-03-01T01:08:11;11.10;;;10.10;;
1837;SDS011;918;50.796;6.772;2023-03-01T01:10:36;12.20;;;10.77;;
1837;SDS011;918;50.796;6.772;2023-03-01T01:13:01;13.07;;;9.90;;
1837;SDS011;918;50.796;6.772;2023-03-01T01:15:27;11.00;;;10.10;;
1837;SDS011;918;50.796;6.772;2023-03-01T01:17:52;11.33;;;10.23;;
1837;SDS011;918;50.796;6.772;2023-03-01T01:20:18;10.70;;;9.60;;
1837;SDS011;918;50.796;6.772;2023-03-01T01:22:43;11.53;;;10.43;;
1837;SDS011;918;50.796;6.772;2023-03-01T01:25:08;11.10;;;10.00;;
1837;SDS011;918;50.796;6.772;2023-03-01T01:27:34;10.60;;;9.60;;
1837;SDS011;918;50.796;6.772;2023-03-01T01:29:59;10.43;;;9.37;;
1837;SDS011;918;50.796;6.772;2023-03-01T01:32:24;10.70;;;9.60;;
1837;SDS011;918;50.796;6.772;2023-03-01T01:34:50;12.57;;;11.03;;
1837;SDS011;918;50.796;6.772;2023-03-01T01:37:15;11.37;;;10.23;;
1837;SDS011;918;50.796;6.772;2023-03-01T01:39:40;14.33;;;11.80;;
1837;SDS011;918;50.796;6.772;2023-03-01T01:42:06;11.90;;;10.70;;
1837;SDS011;918;50.796;6.772;2023-03-01T01:44:33;11.37;;;10.30;;
1837;SDS011;918;50.796;6.772;2023-03-01T01:47:00;16.43;;;10.30;;
1837;SDS011;918;50.796;6.772;2023-03-01T01:49:29;12.73;;;11.63;;
1837;SDS011;918;50.796;6.772;2023-03-01T01:52:00;11.13;;;9.90;;
1837;SDS011;918;50.796;6.772;2023-03-01T01:54:31;12.87;;;10.20;;
1837;SDS011;918;50.796;6.772;2023-03-01T01:57:03;13.00;;;11.70;;
1837;SDS011;918;50.796;6.772;2023-03-01T01:59:32;14.20;;;11.70;;
1837;SDS011;918;50.796;6.772;2023-03-01T02:01:59;12.43;;;11.23;;
1837;SDS011;918;50.796;6.772;2023-03-01T02:04:25;11.73;;;10.53;;
1837;SDS011;918;50.796;6.772;2023-03-01T02:06:57;14.53;;;10.77;;
1837;SDS011;918;50.796;6.772;2023-03-01T02:09:24;12.40;;;11.10;;
1837;SDS011;918;50.796;6.772;2023-03-01T02:11:50;12.40;;;11.20;;
1837;SDS011;918;50.796;6.772;2023-03-01T02:14:16;15.07;;;9.30;;
1837;SDS011;918;50.796;6.772;2023-03-01T02:16:41;12.43;;;11.13;;
1837;SDS011;918;50.796;6.772;2023-03-01T02:19:07;10.50;;;9.53;;
1837;SDS011;918;50.796;6.772;2023-03-01T02:21:49;11.40;;;10.27;;
1837;SDS011;918;50.796;6.772;2023-03-01T02:24:28;13.30;;;10.13;;
1837;SDS011;918;50.796;6.772;2023-03-01T02:26:58;11.33;;;10.07;;
1837;SDS011;918;50.796;6.772;2023-03-01T02:29:23;9.90;;;8.90;;
1837;SDS011;918;50.796;6.772;2023-03-01T02:31:49;13.03;;;11.40;;
1837;SDS011;918;50.796;6.772;2023-03-01T02:34:20;13.50;;;10.63;;
1837;SDS011;918;50.796;6.772;2023-03-01T02:37:01;12.43;;;11.13;;
1837;SDS011;918;50.796;6.772;2023-03-01T02:39:39;13.03;;;11.73;;
1837;SDS011;918;50.796;6.772;2023-03-01T02:42:07;12.57;;;10.70;;
1837;SDS011;918;50.796;6.772;2023-03-01T02:44:35;12.03;;;10.87;;
1837;SDS011;918;50.796;6.772;2023-03-01T02:47:01;11.60;;;10.40;;
1837;SDS011;918;50.796;6.772;2023-03-01T02:49:29;12.90;;;11.60;;
1837;SDS011;918;50.796;6.772;2023-03-01T02:52:01;12.83;;;11.40;;
1837;SDS011;918;50.796;6.772;2023-03-01T02:56:59;11.77;;;10.77;;
1837;SDS011;918;50.796;6.772;2023-03-01T02:59:27;10.97;;;9.87;;
1837;SDS011;918;50.796;6.772;2023-03-01T03:01:54;11.83;;;10.83;;
1837;SDS011;918;50.796;6.772;2023-03-01T03:04:19;12.63;;;11.17;;
1837;SDS011;918;50.796;6.772;2023-03-01T03:06:46;12.43;;;11.17;;
1837;SDS011;918;50.796;6.772;2023-03-01T03:09:12;10.73;;;9.73;;
1837;SDS011;918;50.796;6.772;2023-03-01T03:11:40;11.63;;;10.63;;
1837;SDS011;918;50.796;6.772;2023-03-01T03:14:06;12.97;;;11.50;;
1837;SDS011;918;50.796;6.772;2023-03-01T03:16:37;13.00;;;11.70;;
1837;SDS011;918;50.796;6.772;2023-03-01T03:19:06;12.03;;;10.83;;
1837;SDS011;918;50.796;6.772;2023-03-01T03:21:32;12.07;;;10.80;;
1837;SDS011;918;50.796;6.772;2023-03-01T03:23:58;11.70;;;10.30;;
1837;SDS011;918;50.796;6.772;2023-03-01T03:26:23;11.60;;;10.37;;
1837;SDS011;918;50.796;6.772;2023-03-01T03:28:48;13.40;;;11.73;;
1837;SDS011;918;50.796;6.772;2023-03-01T03:31:14;12.63;;;11.33;;
1837;SDS011;918;50.796;6.772;2023-03-01T03:33:39;11.63;;;10.40;;
1837;SDS011;918;50.796;6.772;2023-03-01T03:36:04;11.60;;;10.50;;
1837;SDS011;918;50.796;6.772;2023-03-01T03:38:30;12.47;;;11.10;;
1837;SDS011;918;50.796;6.772;2023-03-01T03:41:02;12.03;;;10.93;;
1837;SDS011;918;50.796;6.772;2023-03-01T03:43:30;12.17;;;11.10;;
1837;SDS011;918;50.796;6.772;2023-03-01T03:45:57;13.00;;;10.93;;
1837;SDS011;918;50.796;6.772;2023-03-01T03:48:23;12.33;;;11.13;;
1837;SDS011;918;50.796;6.772;2023-03-01T03:50:50;14.00;;;11.63;;
1837;SDS011;918;50.796;6.772;2023-03-01T03:53:17;12.47;;;11.23;;
1837;SDS011;918;50.796;6.772;2023-03-01T03:55:43;16.03;;;12.33;;
1837;SDS011;918;50.796;6.772;2023-03-01T03:58:09;14.57;;;11.40;;
1837;SDS011;918;50.796;6.772;2023-03-01T04:00:39;13.40;;;12.10;;
1837;SDS011;918;50.796;6.772;2023-03-01T04:03:06;13.57;;;11.90;;
1837;SDS011;918;50.796;6.772;2023-03-01T04:05:32;14.30;;;12.90;;
1837;SDS011;918;50.796;6.772;2023-03-01T04:07:58;13.87;;;12.60;;
1837;SDS011;918;50.796;6.772;2023-03-01T04:10:27;12.30;;;11.00;;
1837;SDS011;918;50.796;6.772;2023-03-01T04:12:54;12.50;;;11.23;;
1837;SDS011;918;50.796;6.772;2023-03-01T04:15:21;13.30;;;12.00;;
1837;SDS011;918;50.796;6.772;2023-03-01T04:17:48;15.93;;;12.50;;
1837;SDS011;918;50.796;6.772;2023-03-01T04:20:15;13.17;;;11.87;;
1837;SDS011;918;50.796;6.772;2023-03-01T04:22:42;14.10;;;12.67;;
1837;SDS011;918;50.796;6.772;2023-03-01T04:25:08;14.33;;;13.00;;
1837;SDS011;918;50.796;6.772;2023-03-01T04:27:34;15.27;;;13.43;;
1837;SDS011;918;50.796;6.772;2023-03-01T04:29:59;13.90;;;12.50;;
1837;SDS011;918;50.796;6.772;2023-03-01T04:32:25;12.53;;;10.90;;
1837;SDS011;918;50.796;6.772;2023-03-01T04:34:50;14.33;;;12.83;;
1837;SDS011;918;50.796;6.772;2023-03-01T04:37:15;16.07;;;13.60;;
1837;SDS011;918;50.796;6.772;2023-03-01T04:39:41;14.43;;;12.83;;
1837;SDS011;918;50.796;6.772;2023-03-01T04:42:10;13.80;;;12.40;;
1837;SDS011;918;50.796;6.772;2023-03-01T04:44:36;14.43;;;12.27;;
1837;SDS011;918;50.796;6.772;2023-03-01T04:47:01;14.53;;;12.90;;
1837;SDS011;918;50.796;6.772;2023-03-01T04:49:27;16.00;;;13.40;;
1837;SDS011;918;50.796;6.772;2023-03-01T04:51:52;13.17;;;11.80;;
1837;SDS011;918;50.796;6.772;2023-03-01T04:54:17;14.13;;;12.73;;
1837;SDS011;918;50.796;6.772;2023-03-01T04:56:42;12.67;;;11.47;;
1837;SDS011;918;50.796;6.772;2023-03-01T04:59:08;12.53;;;11.30;;
1837;SDS011;918;50.796;6.772;2023-03-01T05:01:34;14.20;;;12.07;;
1837;SDS011;918;50.796;6.772;2023-03-01T05:04:00;13.70;;;11.80;;
1837;SDS011;918;50.796;6.772;2023-03-01T05:06:27;12.90;;;11.67;;
1837;SDS011;918;50.796;6.772;2023-03-01T05:08:53;14.63;;;13.10;;
1837;SDS011;918;50.796;6.772;2023-03-01T05:11:18;14.33;;;12.93;;
1837;SDS011;918;50.796;6.772;2023-03-01T05:13:43;15.20;;;11.20;;
1837;SDS011;918;50.796;6.772;2023-03-01T05:16:09;13.13;;;11.70;;
1837;SDS011;918;50.796;6.772;2023-03-01T05:18:37;16.03;;;13.07;;
1837;SDS011;918;50.796;6.772;2023-03-01T05:21:07;13.90;;;12.40;;
1837;SDS011;918;50.796;6.772;2023-03-01T05:23:35;16.20;;;11.80;;
1837;SDS011;918;50.796;6.772;2023-03-01T05:26:01;15.33;;;12.60;;
1837;SDS011;918;50.796;6.772;2023-03-01T05:28:28;14.20;;;12.70;;
1837;SDS011;918;50.796;6.772;2023-03-01T05:30:54;12.40;;;11.10;;
1837;SDS011;918;50.796;6.772;2023-03-01T05:33:20;13.47;;;11.73;;
1837;SDS011;918;50.796;6.772;2023-03-01T05:35:47;12.87;;;11.40;;
1837;SDS011;918;50.796;6.772;2023-03-01T05:38:13;14.73;;;12.77;;
1837;SDS011;918;50.796;6.772;2023-03-01T05:40:40;14.00;;;12.50;;
1837;SDS011;918;50.796;6.772;2023-03-01T05:43:06;14.77;;;13.27;;
1837;SDS011;918;50.796;6.772;2023-03-01T05:45:32;16.37;;;12.90;;
1837;SDS011;918;50.796;6.772;2023-03-01T05:47:57;12.83;;;11.53;;
1837;SDS011;918;50.796;6.772;2023-03-01T05:50:24;13.43;;;12.00;;
1837;SDS011;918;50.796;6.772;2023-03-01T05:52:52;12.83;;;11.53;;
1837;SDS011;918;50.796;6.772;2023-03-01T05:55:22;13.60;;;12.20;;
1837;SDS011;918;50.796;6.772;2023-03-01T05:57:47;14.23;;;11.70;;
1837;SDS011;918;50.796;6.772;2023-03-01T06:00:13;12.90;;;11.53;;
1837;SDS011;918;50.796;6.772;2023-03-01T06:02:39;13.97;;;12.37;;
1837;SDS011;918;50.796;6.772;2023-03-01T06:05:06;14.47;;;11.90;;
1837;SDS011;918;50.796;6.772;2023-03-01T06:07:32;15.60;;;12.27;;
1837;SDS011;918;50.796;6.772;2023-03-01T06:09:57;14.87;;;12.93;;
1837;SDS011;918;50.796;6.772;2023-03-01T06:12:23;19.57;;;13.47;;
1837;SDS011;918;50.796;6.772;2023-03-01T06:14:48;15.17;;;13.13;;
1837;SDS011;918;50.796;6.772;2023-03-01T06:17:14;14.50;;;12.90;;
1837;SDS011;918;50.796;6.772;2023-03-01T06:19:39;14.77;;;12.67;;
1837;SDS011;918;50.796;6.772;2023-03-01T06:22:04;16.00;;;14.00;;
1837;SDS011;918;50.796;6.772;2023-03-01T06:24:29;19.20;;;14.23;;
1837;SDS011;918;50.796;6.772;2023-03-01T06:26:55;17.20;;;14.47;;
1837;SDS011;918;50.796;6.772;2023-03-01T06:29:20;17.90;;;13.77;;
1837;SDS011;918;50.796;6.772;2023-03-01T06:31:47;17.83;;;14.90;;
1837;SDS011;918;50.796;6.772;2023-03-01T06:34:12;15.63;;;14.13;;
1837;SDS011;918;50.796;6.772;2023-03-01T06:36:38;13.93;;;12.47;;
1837;SDS011;918;50.796;6.772;2023-03-01T06:39:04;16.93;;;14.80;;
1837;SDS011;918;50.796;6.772;2023-03-01T06:41:30;17.40;;;14.60;;
1837;SDS011;918;50.796;6.772;2023-03-01T06:43:55;14.60;;;13.20;;
1837;SDS011;918;50.796;6.772;2023-03-01T06:46:20;18.93;;;14.47;;
1837;SDS011;918;50.796;6.772;2023-03-01T06:48:46;18.40;;;15.07;;
1837;SDS011;918;50.796;6.772;2023-03-01T06:51:11;17.70;;;13.87;;
1837;SDS011;918;50.796;6.772;2023-03-01T06:53:36;15.73;;;13.93;;
1837;SDS011;918;50.796;6.772;2023-03-01T06:56:02;15.50;;;13.80;;
1837;SDS011;918;50.796;6.772;2023-03-01T06:58:27;19.10;;;14.63;;
1837;SDS011;918;50.796;6.772;2023-03-01T07:00:52;16.63;;;13.83;;
1837;SDS011;918;50.796;6.772;2023-03-01T07:03:18;16.97;;;15.17;;
1837;SDS011;918;50.796;6.772;2023-03-01T07:05:43;18.90;;;15.50;;
1837;SDS011;918;50.796;6.772;2023-03-01T07:08:09;17.57;;;14.80;;
1837;SDS011;918;50.796;6.772;2023-03-01T07:10:35;19.00;;;16.87;;
1837;SDS011;918;50.796;6.772;2023-03-01T07:13:00;20.80;;;15.13;;
1837;SDS011;918;50.796;6.772;2023-03-01T07:15:26;18.63;;;14.93;;
1837;SDS011;918;50.796;6.772;2023-03-01T07:17:52;17.83;;;14.97;;
1837;SDS011;918;50.796;6.772;2023-03-01T07:20:17;19.03;;;16.17;;
1837;SDS011;918;50.796;6.772;2023-03-01T07:22:44;17.50;;;15.60;;
1837;SDS011;918;50.796;6.772;2023-03-01T07:25:09;17.63;;;14.53;;
1837;SDS011;918;50.796;6.772;2023-03-01T07:27:35;18.60;;;14.47;;
1837;SDS011;918;50.796;6.772;2023-03-01T07:30:00;15.57;;;13.93;;
1837;SDS011;918;50.796;6.772;2023-03-01T07:32:26;16.43;;;14.23;;
1837;SDS011;918;50.796;6.772;2023-03-01T07:34:51;17.27;;;14.30;;
1837;SDS011;918;50.796;6.772;2023-03-01T07:37:16;16.27;;;14.37;;
1837;SDS011;918;50.796;6.772;2023-03-01T07:39:42;17.00;;;14.17;;
1837;SDS011;918;50.796;6.772;2023-03-01T07:42:07;16.43;;;14.60;;
1837;SDS011;918;50.796;6.772;2023-03-01T07:44:33;24.83;;;17.63;;
1837;SDS011;918;50.796;6.772;2023-03-01T07:46:59;17.20;;;15.40;;
1837;SDS011;918;50.796;6.772;2023-03-01T07:49:24;18.37;;;14.57;;
1837;SDS011;918;50.796;6.772;2023-03-01T07:51:51;19.60;;;15.30;;
1837;SDS011;918;50.796;6.772;2023-03-01T07:54:16;18.23;;;16.07;;
1837;SDS011;918;50.796;6.772;2023-03-01T07:56:42;24.17;;;18.17;;
1837;SDS011;918;50.796;6.772;2023-03-01T07:59:08;37.93;;;25.77;;
1837;SDS011;918;50.796;6.772;2023-03-01T08:01:34;35.77;;;22.80;;
1837;SDS011;918;50.796;6.772;2023-03-01T08:03:59;32.67;;;22.17;;
1837;SDS011;918;50.796;6.772;2023-03-01T08:06:24;29.47;;;21.67;;
1837;SDS011;918;50.796;6.772;2023-03-01T08:08:49;27.60;;;21.10;;
1837;SDS011;918;50.796;6.772;2023-03-01T08:11:15;40.10;;;22.50;;
1837;SDS011;918;50.796;6.772;2023-03-01T08:13:41;26.73;;;19.37;;
1837;SDS011;918;50.796;6.772;2023-03-01T08:16:10;19.07;;;17.13;;
1837;SDS011;918;50.796;6.772;2023-03-01T08:18:37;20.17;;;16.37;;
1837;SDS011;918;50.796;6.772;2023-03-01T08:21:10;18.83;;;16.30;;
1837;SDS011;918;50.796;6.772;2023-03-01T08:23:37;22.57;;;16.67;;
1837;SDS011;918;50.796;6.772;2023-03-01T08:26:06;19.20;;;15.60;;
1837;SDS011;918;50.796;6.772;2023-03-01T08:28:33;20.00;;;15.47;;
1837;SDS011;918;50.796;6.772;2023-03-01T08:30:58;25.40;;;17.40;;
1837;SDS011;918;50.796;6.772;2023-03-01T08:33:23;17.50;;;14.70;;
1837;SDS011;918;50.796;6.772;2023-03-01T08:35:49;15.93;;;14.23;;
1837;SDS011;918;50.796;6.772;2023-03-01T08:38:14;16.70;;;14.57;;
1837;SDS011;918;50.796;6.772;2023-03-01T08:40:39;17.50;;;14.50;;
1837;SDS011;918;50.796;6.772;2023-03-01T08:43:04;15.67;;;13.77;;
1837;SDS011;918;50.796;6.772;2023-03-01T08:45:30;19.27;;;15.33;;
1837;SDS011;918;50.796;6.772;2023-03-01T08:47:55;15.90;;;13.90;;
1837;SDS011;918;50.796;6.772;2023-03-01T08:50:20;15.50;;;12.90;;
1837;SDS011;918;50.796;6.772;2023-03-01T08:52:45;17.23;;;13.30;;
1837;SDS011;918;50.796;6.772;2023-03-01T08:55:11;16.90;;;14.00;;
1837;SDS011;918;50.796;6.772;2023-03-01T08:57:36;14.80;;;13.40;;
1837;SDS011;918;50.796;6.772;2023-03-01T09:00:02;14.83;;;13.07;;
1837;SDS011;918;50.796;6.772;2023-03-01T09:02:28;15.00;;;12.80;;
1837;SDS011;918;50.796;6.772;2023-03-01T09:04:53;15.93;;;14.30;;
1837;SDS011;918;50.796;6.772;2023-03-01T09:07:18;16.20;;;13.90;;
1837;SDS011;918;50.796;6.772;2023-03-01T09:09:44;18.17;;;15.00;;
1837;SDS011;918;50.796;6.772;2023-03-01T09:12:09;16.33;;;14.00;;
1837;SDS011;918;50.796;6.772;2023-03-01T09:14:34;15.73;;;14.10;;
1837;SDS011;918;50.796;6.772;2023-03-01T09:17:02;16.57;;;14.87;;
1837;SDS011;918;50.796;6.772;2023-03-01T09:19:28;17.93;;;16.00;;
1837;SDS011;918;50.796;6.772;2023-03-01T09:21:53;16.20;;;14.60;;
1837;SDS011;918;50.796;6.772;2023-03-01T09:24:20;18.20;;;15.90;;
1837;SDS011;918;50.796;6.772;2023-03-01T09:26:46;17.57;;;15.20;;
1837;SDS011;918;50.796;6.772;2023-03-01T09:29:11;17.87;;;15.77;;
1837;SDS011;918;50.796;6.772;2023-03-01T09:31:37;19.87;;;16.20;;
1837;SDS011;918;50.796;6.772;2023-03-01T09:34:02;18.10;;;16.17;;
1837;SDS011;918;50.796;6.772;2023-03-01T09:36:27;15.57;;;13.97;;
1837;SDS011;918;50.796;6.772;2023-03-01T09:38:53;18.00;;;16.10;;
1837;SDS011;918;50.796;6.772;2023-03-01T09:41:38;19.47;;;14.77;;
1837;SDS011;918;50.796;6.772;2023-03-01T09:44:21;17.30;;;15.50;;
1837;SDS011;918;50.796;6.772;2023-03-01T09:46:50;18.73;;;16.13;;
1837;SDS011;918;50.796;6.772;2023-03-01T09:49:19;15.93;;;14.33;;
1837;SDS011;918;50.796;6.772;2023-03-01T09:51:54;17.17;;;15.33;;
1837;SDS011;918;50.796;6.772;2023-03-01T09:54:21;16.07;;;14.43;;
1837;SDS011;918;50.796;6.772;2023-03-01T09:56:59;17.07;;;15.37;;
1837;SDS011;918;50.796;6.772;2023-03-01T10:02:32;17.07;;;14.70;;
1837;SDS011;918;50.796;6.772;2023-03-01T10:05:21;15.80;;;13.47;;
1837;SDS011;918;50.796;6.772;2023-03-01T10:07:57;15.60;;;14.10;;
1837;SDS011;918;50.796;6.772;2023-03-01T10:10:35;15.70;;;13.90;;
1837;SDS011;918;50.796;6.772;2023-03-01T10:13:10;17.13;;;14.70;;
1837;SDS011;918;50.796;6.772;2023-03-01T10:15:42;14.37;;;12.47;;
1837;SDS011;918;50.796;6.772;2023-03-01T10:18:12;15.23;;;13.60;;
1837;SDS011;918;50.796;6.772;2023-03-01T10:23:07;13.63;;;12.30;;
1837;SDS011;918;50.796;6.772;2023-03-01T10:28:25;17.00;;;13.27;;
1837;SDS011;918;50.796;6.772;2023-03-01T10:30:53;15.33;;;13.20;;
1837;SDS011;918;50.796;6.772;2023-03-01T10:33:32;16.40;;;13.07;;
1837;SDS011;918;50.796;6.772;2023-03-01T10:35:58;15.27;;;13.67;;
1837;SDS011;918;50.796;6.772;2023-03-01T10:38:23;13.10;;;11.90;;
1837;SDS011;918;50.796;6.772;2023-03-01T10:40:53;15.03;;;13.40;;
1837;SDS011;918;50.796;6.772;2023-03-01T10:43:19;14.57;;;13.20;;
1837;SDS011;918;50.796;6.772;2023-03-01T10:45:45;14.83;;;13.33;;
1837;SDS011;918;50.796;6.772;2023-03-01T10:48:20;15.00;;;13.43;;
1837;SDS011;918;50.796;6.772;2023-03-01T10:51:12;13.87;;;12.50;;
1837;SDS011;918;50.796;6.772;2023-03-01T10:53:38;20.67;;;13.00;;
1837;SDS011;918;50.796;6.772;2023-03-01T10:56:07;15.03;;;13.40;;
1837;SDS011;918;50.796;6.772;2023-03-01T10:58:34;15.97;;;13.80;;
1837;SDS011;918;50.796;6.772;2023-03-01T11:01:01;14.60;;;13.20;;
1837;SDS011;918;50.796;6.772;2023-03-01T11:03:32;18.23;;;14.20;;
1837;SDS011;918;50.796;6.772;2023-03-01T11:06:03;14.73;;;12.97;;
1837;SDS011;918;50.796;6.772;2023-03-01T11:08:39;14.50;;;13.10;;
1837;SDS011;918;50.796;6.772;2023-03-01T11:13:34;14.40;;;12.97;;
1837;SDS011;918;50.796;6.772;2023-03-01T11:16:03;15.30;;;13.57;;
1837;SDS011;918;50.796;6.772;2023-03-01T11:18:31;14.70;;;13.20;;
1837;SDS011;918;50.796;6.772;2023-03-01T11:20:56;13.03;;;11.83;;
1837;SDS011;918;50.796;6.772;2023-03-01T11:23:23;14.13;;;12.63;;
1837;SDS011;918;50.796;6.772;2023-03-01T11:25:56;14.83;;;13.50;;
1837;SDS011;918;50.796;6.772;2023-03-01T11:28:23;15.97;;;12.60;;
1837;SDS011;918;50.796;6.772;2023-03-01T11:30:57;15.00;;;13.40;;
1837;SDS011;918;50.796;6.772;2023-03-01T11:38:41;15.33;;;13.33;;
1837;SDS011;918;50.796;6.772;2023-03-01T11:41:10;17.70;;;13.40;;
1837;SDS011;918;50.796;6.772;2023-03-01T12:08:43;15.60;;;14.00;;
1837;SDS011;918;50.796;6.772;2023-03-01T12:11:27;15.60;;;13.43;;
1837;SDS011;918;50.796;6.772;2023-03-01T12:14:07;14.70;;;12.30;;
1837;SDS011;918;50.796;6.772;2023-03-01T12:19:44;15.93;;;12.20;;
1837;SDS011;918;50.796;6.772;2023-03-01T12:22:34;13.60;;;12.20;;
1837;SDS011;918;50.796;6.772;2023-03-01T12:25:05;13.43;;;12.00;;
1837;SDS011;918;50.796;6.772;2023-03-01T12:33:24;12.93;;;11.60;;
1837;SDS011;918;50.796;6.772;2023-03-01T12:41:16;11.93;;;10.73;;
1837;SDS011;918;50.796;6.772;2023-03-01T12:43:59;13.10;;;11.60;;
1837;SDS011;918;50.796;6.772;2023-03-01T12:46:39;12.87;;;11.40;;
1837;SDS011;918;50.796;6.772;2023-03-01T12:49:16;12.03;;;10.77;;
1837;SDS011;918;50.796;6.772;2023-03-01T12:51:44;11.30;;;10.10;;
1837;SDS011;918;50.796;6.772;2023-03-01T12:54:27;12.47;;;10.80;;
1837;SDS011;918;50.796;6.772;2023-03-01T12:56:53;11.13;;;9.93;;
1837;SDS011;918;50.796;6.772;2023-03-01T12:59:42;9.63;;;8.73;;
1837;SDS011;918;50.796;6.772;2023-03-01T13:02:31;10.07;;;9.20;;
1837;SDS011;918;50.796;6.772;2023-03-01T13:07:50;13.50;;;11.80;;
1837;SDS011;918;50.796;6.772;2023-03-01T13:10:33;12.93;;;11.73;;
1837;SDS011;918;50.796;6.772;2023-03-01T13:13:02;14.17;;;12.87;;
1837;SDS011;918;50.796;6.772;2023-03-01T13:15:38;13.60;;;12.40;;
1837;SDS011;918;50.796;6.772;2023-03-01T13:20:47;11.47;;;10.37;;
1837;SDS011;918;50.796;6.772;2023-03-01T13:30:59;12.50;;;11.20;;
1837;SDS011;918;50.796;6.772;2023-03-01T13:35:55;10.47;;;9.47;;
1837;SDS011;918;50.796;6.772;2023-03-01T13:44:12;10.60;;;9.60;;
1837;SDS011;918;50.796;6.772;2023-03-01T13:46:46;10.67;;;9.67;;
1837;SDS011;918;50.796;6.772;2023-03-01T13:49:13;10.93;;;9.87;;
1837;SDS011;918;50.796;6.772;2023-03-01T13:51:40;12.13;;;10.97;;
1837;SDS011;918;50.796;6.772;2023-03-01T13:54:09;16.60;;;10.57;;
1837;SDS011;918;50.796;6.772;2023-03-01T13:56:37;11.97;;;10.77;;
1837;SDS011;918;50.796;6.772;2023-03-01T13:59:04;12.57;;;11.40;;
1837;SDS011;918;50.796;6.772;2023-03-01T14:01:32;11.47;;;10.27;;
1837;SDS011;918;50.796;6.772;2023-03-01T14:03:59;11.80;;;10.60;;
1837;SDS011;918;50.796;6.772;2023-03-01T14:06:28;11.80;;;10.70;;
1837;SDS011;918;50.796;6.772;2023-03-01T14:09:03;10.97;;;9.97;;
1837;SDS011;918;50.796;6.772;2023-03-01T14:19:48;11.90;;;9.70;;
1837;SDS011;918;50.796;6.772;2023-03-01T14:22:24;11.40;;;10.30;;
1837;SDS011;918;50.796;6.772;2023-03-01T14:27:27;9.67;;;8.77;;
1837;SDS011;918;50.796;6.772;2023-03-01T14:30:38;10.03;;;9.13;;
1837;SDS011;918;50.796;6.772;2023-03-01T14:32:57;9.47;;;8.60;;
1837;SDS011;918;50.796;6.772;2023-03-01T14:35:25;11.43;;;10.27;;
1837;SDS011;918;50.796;6.772;2023-03-01T14:38:01;10.23;;;9.30;;
1837;SDS011;918;50.796;6.772;2023-03-01T14:40:34;13.13;;;10.50;;
1837;SDS011;918;50.796;6.772;2023-03-01T14:43:01;12.80;;;11.40;;
1837;SDS011;918;50.796;6.772;2023-03-01T14:45:33;15.70;;;11.83;;
1837;SDS011;918;50.796;6.772;2023-03-01T14:47:59;11.63;;;10.43;;
1837;SDS011;918;50.796;6.772;2023-03-01T14:50:30;12.80;;;11.60;;
1837;SDS011;918;50.796;6.772;2023-03-01T14:53:00;12.33;;;11.13;;
1837;SDS011;918;50.796;6.772;2023-03-01T14:57:56;14.43;;;11.70;;
1837;SDS011;918;50.796;6.772;2023-03-01T15:00:22;12.00;;;10.73;;
1837;SDS011;918;50.796;6.772;2023-03-01T15:02:53;10.40;;;9.50;;
1837;SDS011;918;50.796;6.772;2023-03-01T15:05:41;10.40;;;9.40;;
1837;SDS011;918;50.796;6.772;2023-03-01T15:08:05;10.87;;;9.70;;
1837;SDS011;918;50.796;6.772;2023-03-01T15:10:32;11.77;;;10.53;;
1837;SDS011;918;50.796;6.772;2023-03-01T15:15:46;11.77;;;10.10;;
1837;SDS011;918;50.796;6.772;2023-03-01T15:18:14;9.90;;;9.00;;
1837;SDS011;918;50.796;6.772;2023-03-01T15:20:40;10.27;;;9.27;;
1837;SDS011;918;50.796;6.772;2023-03-01T15:23:05;9.70;;;8.70;;
1837;SDS011;918;50.796;6.772;2023-03-01T15:25:31;10.70;;;9.60;;
1837;SDS011;918;50.796;6.772;2023-03-01T15:27:57;10.83;;;9.73;;
1837;SDS011;918;50.796;6.772;2023-03-01T15:30:25;10.90;;;9.87;;
1837;SDS011;918;50.796;6.772;2023-03-01T15:35:46;9.97;;;8.97;;
1837;SDS011;918;50.796;6.772;2023-03-01T15:41:32;10.40;;;9.50;;
1837;SDS011;918;50.796;6.772;2023-03-01T15:44:47;9.63;;;8.40;;
1837;SDS011;918;50.796;6.772;2023-03-01T15:46:51;10.83;;;9.83;;
1837;SDS011;918;50.796;6.772;2023-03-01T15:51:51;10.00;;;9.10;;
1837;SDS011;918;50.796;6.772;2023-03-01T15:54:20;11.03;;;10.03;;
1837;SDS011;918;50.796;6.772;2023-03-01T15:56:46;10.97;;;9.87;;
1837;SDS011;918;50.796;6.772;2023-03-01T15:59:12;10.73;;;9.10;;
1837;SDS011;918;50.796;6.772;2023-03-01T16:01:41;11.70;;;10.57;;
1837;SDS011;918;50.796;6.772;2023-03-01T16:04:08;9.43;;;8.63;;
1837;SDS011;918;50.796;6.772;2023-03-01T16:06:35;9.73;;;8.60;;
1837;SDS011;918;50.796;6.772;2023-03-01T16:09:00;12.70;;;11.13;;
1837;SDS011;918;50.796;6.772;2023-03-01T16:11:27;8.90;;;8.10;;
1837;SDS011;918;50.796;6.772;2023-03-01T16:13:52;9.70;;;8.80;;
1837;SDS011;918;50.796;6.772;2023-03-01T16:16:17;9.97;;;9.10;;
1837;SDS011;918;50.796;6.772;2023-03-01T16:18:43;10.60;;;9.60;;
1837;SDS011;918;50.796;6.772;2023-03-01T16:21:16;10.13;;;9.13;;
1837;SDS011;918;50.796;6.772;2023-03-01T16:23:45;11.60;;;10.43;;
1837;SDS011;918;50.796;6.772;2023-03-01T16:26:10;11.40;;;10.20;;
1837;SDS011;918;50.796;6.772;2023-03-01T16:28:37;11.73;;;10.70;;
1837;SDS011;918;50.796;6.772;2023-03-01T16:31:03;11.33;;;10.23;;
1837;SDS011;918;50.796;6.772;2023-03-01T16:33:29;10.97;;;9.87;;
1837;SDS011;918;50.796;6.772;2023-03-01T16:35:54;11.33;;;9.13;;
1837;SDS011;918;50.796;6.772;2023-03-01T16:38:19;11.87;;;8.97;;
1837;SDS011;918;50.796;6.772;2023-03-01T16:40:46;10.27;;;9.30;;
1837;SDS011;918;50.796;6.772;2023-03-01T16:43:13;12.10;;;8.57;;
1837;SDS011;918;50.796;6.772;2023-03-01T16:45:38;9.73;;;8.70;;
1837;SDS011;918;50.796;6.772;2023-03-01T16:48:05;11.90;;;9.23;;
1837;SDS011;918;50.796;6.772;2023-03-01T16:50:31;9.77;;;8.87;;
1837;SDS011;918;50.796;6.772;2023-03-01T16:52:56;10.53;;;9.33;;
1837;SDS011;918;50.796;6.772;2023-03-01T16:55:21;9.70;;;8.70;;
1837;SDS011;918;50.796;6.772;2023-03-01T16:57:46;8.97;;;8.17;;